Back to Top

Language: 

My Weather Underground Personal Weather Station Historical Data with Graphs...

Delerius Weather Station Historical Data
Daily Summary for July 27, 2017 Units:  English    Metric   Both
« Previous Day
Next Day »
Daily Weekly Monthly Yearly Custom
  High: Low: Average:
Temperature: 65.8 °F 52.3 °F 57.4 °F
Dew Point: 57.1 °F 48.0 °F 52.1 °F
Humidity: 92 % 64 % 83 %
Wind Speed: 16.0 mph 2.0 mph 7.2 mph
Wind Gust: 27.0 mph - -
Wind:- - WSW
Pressure: 29.64 in 29.57 in -
Precipitation: 0.09 in    
Historical Graphs
 
 
Tabular Data for July 27, 2017
Time Temperature Dew Point Pressure Wind Wind Speed Wind Gust Humidity Rainfall Rate (Hourly) solar Conditions
00:00 54.3 °F 50.5 °F 29.59 in WSW 5.0 mph 11.0 mph 87 % 0.00 in 0 W/m2
00:05 54.1 °F 50.7 °F 29.60 in WSW 4.0 mph 8.0 mph 88 % 0.00 in 0 W/m2
00:10 54.1 °F 50.4 °F 29.59 in WSW 4.0 mph 11.0 mph 87 % 0.00 in 0 W/m2
00:15 54.0 °F 50.2 °F 29.60 in WSW 5.0 mph 11.0 mph 87 % 0.00 in 0 W/m2
00:20 53.8 °F 50.0 °F 29.60 in West 7.0 mph 13.0 mph 87 % 0.00 in 0 W/m2
00:25 53.8 °F 50.0 °F 29.61 in West 8.0 mph 13.0 mph 87 % 0.00 in 0 W/m2
00:30 53.8 °F 50.0 °F 29.61 in West 8.0 mph 15.0 mph 87 % 0.00 in 0 W/m2
00:35 53.8 °F 50.0 °F 29.61 in West 8.0 mph 15.0 mph 87 % 0.00 in 0 W/m2
00:40 54.0 °F 50.2 °F 29.61 in WSW 7.0 mph 15.0 mph 87 % 0.00 in 0 W/m2
00:45 54.0 °F 50.2 °F 29.61 in WSW 6.0 mph 11.0 mph 87 % 0.00 in 0 W/m2
00:50 54.0 °F 50.2 °F 29.62 in WSW 5.0 mph 11.0 mph 87 % 0.00 in 0 W/m2
00:55 53.8 °F 50.0 °F 29.62 in WSW 4.0 mph 9.0 mph 87 % 0.00 in 0 W/m2
01:00 54.0 °F 50.2 °F 29.62 in WSW 5.0 mph 12.0 mph 87 % 0.00 in 0 W/m2
01:05 54.0 °F 50.2 °F 29.61 in SW 7.0 mph 12.0 mph 87 % 0.00 in 0 W/m2
01:10 54.1 °F 50.4 °F 29.62 in WSW 7.0 mph 12.0 mph 87 % 0.00 in 0 W/m2
01:15 54.1 °F 50.4 °F 29.61 in WSW 6.0 mph 10.0 mph 87 % 0.00 in 0 W/m2
01:20 54.3 °F 50.5 °F 29.61 in WSW 6.0 mph 10.0 mph 87 % 0.00 in 0 W/m2
01:21 54.3 °F 50.5 °F 29.61 in WSW 6.0 mph 10.0 mph 87 % 0.00 in 0 W/m2
01:26 54.3 °F 50.5 °F 29.61 in WSW 7.0 mph 13.0 mph 87 % 0.00 in 0 W/m2
01:31 54.5 °F 50.7 °F 29.61 in WSW 7.0 mph 13.0 mph 87 % 0.00 in 0 W/m2
01:36 54.7 °F 50.9 °F 29.61 in WSW 8.0 mph 13.0 mph 87 % 0.00 in 0 W/m2
01:41 54.7 °F 50.6 °F 29.61 in WSW 9.0 mph 14.0 mph 86 % 0.00 in 0 W/m2
01:46 54.7 °F 50.6 °F 29.61 in WSW 7.0 mph 14.0 mph 86 % 0.00 in 0 W/m2
01:51 54.7 °F 50.6 °F 29.61 in WSW 6.0 mph 12.0 mph 86 % 0.00 in 0 W/m2
01:56 54.3 °F 49.9 °F 29.61 in WSW 6.0 mph 12.0 mph 85 % 0.00 in 0 W/m2
02:01 54.3 °F 49.9 °F 29.61 in West 6.0 mph 11.0 mph 85 % 0.00 in 0 W/m2
02:06 54.1 °F 49.7 °F 29.61 in West 7.0 mph 18.0 mph 85 % 0.00 in 0 W/m2
02:11 54.1 °F 49.7 °F 29.61 in West 8.0 mph 18.0 mph 85 % 0.00 in 0 W/m2
02:16 54.1 °F 49.7 °F 29.62 in West 8.0 mph 18.0 mph 85 % 0.00 in 0 W/m2
02:21 54.0 °F 49.6 °F 29.62 in West 7.0 mph 11.0 mph 85 % 0.00 in 0 W/m2
02:26 54.0 °F 49.9 °F 29.62 in West 6.0 mph 11.0 mph 86 % 0.00 in 0 W/m2
02:31 53.8 °F 49.7 °F 29.62 in West 7.0 mph 11.0 mph 86 % 0.00 in 0 W/m2
02:36 53.8 °F 49.7 °F 29.63 in West 7.0 mph 12.0 mph 86 % 0.00 in 0 W/m2
02:41 53.8 °F 49.7 °F 29.62 in West 6.0 mph 12.0 mph 86 % 0.00 in 0 W/m2
02:46 53.8 °F 49.7 °F 29.63 in WSW 7.0 mph 13.0 mph 86 % 0.00 in 0 W/m2
02:51 53.8 °F 49.7 °F 29.62 in West 7.0 mph 13.0 mph 86 % 0.00 in 0 W/m2
02:56 53.8 °F 49.7 °F 29.62 in West 7.0 mph 13.0 mph 86 % 0.00 in 0 W/m2
03:01 53.8 °F 49.7 °F 29.63 in West 7.0 mph 13.0 mph 86 % 0.00 in 0 W/m2
03:06 53.8 °F 49.7 °F 29.62 in West 7.0 mph 12.0 mph 86 % 0.00 in 0 W/m2
03:11 53.8 °F 49.7 °F 29.62 in West 8.0 mph 13.0 mph 86 % 0.00 in 0 W/m2
03:16 53.8 °F 49.7 °F 29.62 in WSW 9.0 mph 16.0 mph 86 % 0.00 in 0 W/m2
03:21 53.8 °F 49.4 °F 29.62 in West 8.0 mph 16.0 mph 85 % 0.00 in 0 W/m2
03:26 53.8 °F 49.4 °F 29.62 in West 7.0 mph 15.0 mph 85 % 0.00 in 0 W/m2
03:31 53.4 °F 49.0 °F 29.62 in West 7.0 mph 11.0 mph 85 % 0.00 in 0 W/m2
03:36 53.2 °F 48.8 °F 29.62 in West 7.0 mph 13.0 mph 85 % 0.00 in 0 W/m2
03:41 53.2 °F 49.2 °F 29.62 in West 6.0 mph 13.0 mph 86 % 0.00 in 0 W/m2
03:46 53.1 °F 49.0 °F 29.62 in West 5.0 mph 11.0 mph 86 % 0.00 in 0 W/m2
03:51 52.9 °F 48.8 °F 29.62 in West 4.0 mph 10.0 mph 86 % 0.00 in 0 W/m2
03:56 52.9 °F 49.1 °F 29.62 in WSW 5.0 mph 10.0 mph 87 % 0.00 in 0 W/m2
03:59 52.9 °F 49.1 °F 29.61 in WSW 4.0 mph 10.0 mph 87 % 0.00 in 0 W/m2
04:04 52.7 °F 48.9 °F 29.61 in WSW 4.0 mph 8.0 mph 87 % 0.00 in 0 W/m2
04:09 52.7 °F 48.9 °F 29.61 in WSW 4.0 mph 8.0 mph 87 % 0.00 in 0 W/m2
04:14 52.7 °F 49.2 °F 29.62 in WSW 2.0 mph 7.0 mph 88 % 0.00 in 0 W/m2
04:19 52.5 °F 49.1 °F 29.62 in WSW 2.0 mph 7.0 mph 88 % 0.00 in 0 W/m2
04:24 52.7 °F 49.2 °F 29.62 in WSW 3.0 mph 8.0 mph 88 % 0.00 in 0 W/m2
04:29 52.9 °F 49.4 °F 29.62 in WSW 5.0 mph 9.0 mph 88 % 0.00 in 0 W/m2
04:34 53.1 °F 49.6 °F 29.62 in WSW 5.0 mph 9.0 mph 88 % 0.00 in 0 W/m2
04:39 53.2 °F 49.5 °F 29.62 in SW 5.0 mph 9.0 mph 87 % 0.00 in 0 W/m2
04:44 53.4 °F 49.6 °F 29.61 in WSW 6.0 mph 11.0 mph 87 % 0.00 in 0 W/m2
04:49 53.4 °F 49.3 °F 29.61 in WSW 5.0 mph 11.0 mph 86 % 0.00 in 0 W/m2
04:54 53.4 °F 49.3 °F 29.61 in WSW 4.0 mph 8.0 mph 86 % 0.00 in 0 W/m2
04:59 53.2 °F 49.2 °F 29.61 in WSW 4.0 mph 8.0 mph 86 % 0.00 in 0 W/m2
05:04 53.2 °F 49.2 °F 29.61 in WSW 4.0 mph 9.0 mph 86 % 0.00 in 5 W/m2
05:09 53.2 °F 49.2 °F 29.61 in WSW 5.0 mph 10.0 mph 86 % 0.00 in 5 W/m2
05:14 53.2 °F 49.2 °F 29.62 in WSW 6.0 mph 10.0 mph 86 % 0.00 in 5 W/m2
05:19 53.1 °F 49.0 °F 29.62 in WSW 5.0 mph 11.0 mph 86 % 0.00 in 7 W/m2
05:24 53.1 °F 49.0 °F 29.62 in WSW 6.0 mph 11.0 mph 86 % 0.00 in 7 W/m2
05:26 53.1 °F 49.0 °F 29.62 in WSW 7.0 mph 11.0 mph 86 % 0.00 in 7 W/m2
05:31 52.9 °F 48.5 °F 29.62 in WSW 7.0 mph 12.0 mph 85 % 0.00 in 9 W/m2
05:36 52.7 °F 48.3 °F 29.62 in WSW 7.0 mph 12.0 mph 85 % 0.00 in 11 W/m2
05:41 52.5 °F 48.1 °F 29.62 in WSW 7.0 mph 11.0 mph 85 % 0.00 in 12 W/m2
05:46 52.5 °F 48.1 °F 29.62 in WSW 6.0 mph 11.0 mph 85 % 0.00 in 14 W/m2
05:51 52.3 °F 48.3 °F 29.62 in WSW 6.0 mph 11.0 mph 86 % 0.00 in 23 W/m2
05:56 52.3 °F 48.0 °F 29.62 in WSW 6.0 mph 11.0 mph 85 % 0.00 in 30 W/m2
06:01 52.3 °F 48.3 °F 29.62 in WSW 5.0 mph 9.0 mph 86 % 0.00 in 44 W/m2
06:06 52.5 °F 48.5 °F 29.62 in West 6.0 mph 10.0 mph 86 % 0.00 in 49 W/m2
06:11 52.7 °F 48.3 °F 29.62 in WSW 6.0 mph 10.0 mph 85 % 0.00 in 60 W/m2
06:16 53.1 °F 48.7 °F 29.62 in WSW 5.0 mph 10.0 mph 85 % 0.00 in 76 W/m2
06:21 53.2 °F 48.8 °F 29.62 in SW 6.0 mph 14.0 mph 85 % 0.00 in 62 W/m2
06:26 53.4 °F 48.7 °F 29.63 in SW 7.0 mph 14.0 mph 84 % 0.00 in 51 W/m2
06:31 53.8 °F 48.7 °F 29.63 in SW 7.0 mph 14.0 mph 83 % 0.00 in 46 W/m2
06:36 53.8 °F 48.4 °F 29.63 in SW 6.0 mph 11.0 mph 82 % 0.00 in 49 W/m2
06:41 53.8 °F 48.4 °F 29.63 in SW 6.0 mph 11.0 mph 82 % 0.00 in 60 W/m2
06:46 54.0 °F 48.6 °F 29.62 in SW 7.0 mph 14.0 mph 82 % 0.00 in 60 W/m2
06:51 54.0 °F 48.6 °F 29.63 in SW 7.0 mph 14.0 mph 82 % 0.00 in 49 W/m2
06:56 54.0 °F 48.6 °F 29.63 in SW 6.0 mph 12.0 mph 82 % 0.00 in 70 W/m2
07:01 53.8 °F 48.4 °F 29.63 in SW 5.0 mph 9.0 mph 82 % 0.00 in 86 W/m2
07:06 54.0 °F 48.6 °F 29.63 in SW 7.0 mph 14.0 mph 82 % 0.00 in 107 W/m2
07:11 54.0 °F 48.6 °F 29.63 in SW 8.0 mph 14.0 mph 82 % 0.00 in 114 W/m2
07:16 54.1 °F 48.8 °F 29.63 in WSW 8.0 mph 14.0 mph 82 % 0.00 in 105 W/m2
07:21 54.1 °F 48.8 °F 29.63 in WSW 8.0 mph 13.0 mph 82 % 0.00 in 97 W/m2
07:26 54.1 °F 48.8 °F 29.63 in SW 8.0 mph 12.0 mph 82 % 0.00 in 88 W/m2
07:31 54.1 °F 48.8 °F 29.63 in SW 7.0 mph 12.0 mph 82 % 0.00 in 114 W/m2
07:36 54.3 °F 48.9 °F 29.63 in SW 7.0 mph 13.0 mph 82 % 0.00 in 176 W/m2
07:41 54.3 °F 49.3 °F 29.63 in SW 7.0 mph 13.0 mph 83 % 0.00 in 148 W/m2
07:46 54.7 °F 49.3 °F 29.63 in SW 8.0 mph 13.0 mph 82 % 0.00 in 130 W/m2
07:51 54.9 °F 49.5 °F 29.64 in SW 9.0 mph 15.0 mph 82 % 0.00 in 128 W/m2
07:56 55.0 °F 49.6 °F 29.64 in SW 9.0 mph 15.0 mph 82 % 0.00 in 151 W/m2
08:01 55.0 °F 49.3 °F 29.64 in SW 9.0 mph 15.0 mph 81 % 0.00 in 169 W/m2
08:06 55.4 °F 50.0 °F 29.64 in SW 9.0 mph 15.0 mph 82 % 0.00 in 185 W/m2
08:11 55.6 °F 49.8 °F 29.64 in SW 9.0 mph 16.0 mph 81 % 0.00 in 214 W/m2
08:16 55.8 °F 50.0 °F 29.64 in SW 10.0 mph 16.0 mph 81 % 0.00 in 223 W/m2
08:18 55.8 °F 50.0 °F 29.64 in SW 10.0 mph 16.0 mph 81 % 0.00 in 220 W/m2
08:23 55.9 °F 49.9 °F 29.64 in SW 11.0 mph 19.0 mph 80 % 0.00 in 218 W/m2
08:28 55.9 °F 49.9 °F 29.63 in SW 10.0 mph 19.0 mph 80 % 0.00 in 192 W/m2
08:33 55.9 °F 49.5 °F 29.63 in SW 10.0 mph 18.0 mph 79 % 0.00 in 156 W/m2
08:38 55.9 °F 49.5 °F 29.63 in SW 10.0 mph 18.0 mph 79 % 0.00 in 144 W/m2
08:43 55.9 °F 49.5 °F 29.63 in SW 9.0 mph 14.0 mph 79 % 0.00 in 146 W/m2
08:48 55.9 °F 49.5 °F 29.63 in SW 8.0 mph 14.0 mph 79 % 0.00 in 137 W/m2
08:53 55.9 °F 49.9 °F 29.63 in SW 6.0 mph 13.0 mph 80 % 0.00 in 139 W/m2
08:58 55.9 °F 49.9 °F 29.63 in SW 5.0 mph 10.0 mph 80 % 0.00 in 153 W/m2
09:03 55.9 °F 49.9 °F 29.63 in SW 7.0 mph 14.0 mph 80 % 0.00 in 190 W/m2
09:08 56.1 °F 50.4 °F 29.63 in SW 8.0 mph 14.0 mph 81 % 0.00 in 218 W/m2
09:13 56.1 °F 50.4 °F 29.63 in SSW 7.0 mph 14.0 mph 81 % 0.00 in 160 W/m2
09:19 56.3 °F 50.5 °F 29.62 in SW 7.0 mph 14.0 mph 81 % 0.00 in 134 W/m2
09:24 56.3 °F 50.5 °F 29.63 in SW 8.0 mph 12.0 mph 81 % 0.00 in 128 W/m2
09:29 56.5 °F 50.7 °F 29.63 in SSW 8.0 mph 14.0 mph 81 % 0.00 in 165 W/m2
09:34 56.5 °F 50.7 °F 29.63 in SSW 8.0 mph 14.0 mph 81 % 0.00 in 149 W/m2
09:39 56.7 °F 50.9 °F 29.63 in SSW 8.0 mph 14.0 mph 81 % 0.00 in 132 W/m2
09:44 56.7 °F 50.9 °F 29.63 in SSW 8.0 mph 14.0 mph 81 % 0.00 in 171 W/m2
09:49 56.7 °F 51.2 °F 29.62 in South 8.0 mph 14.0 mph 82 % 0.00 in 178 W/m2
09:54 56.8 °F 51.1 °F 29.62 in South 7.0 mph 12.0 mph 81 % 0.00 in 185 W/m2
09:59 56.8 °F 51.4 °F 29.62 in South 7.0 mph 13.0 mph 82 % 0.00 in 209 W/m2
10:04 57.0 °F 51.6 °F 29.62 in South 7.0 mph 13.0 mph 82 % 0.00 in 209 W/m2
10:09 57.4 °F 51.6 °F 29.61 in South 7.0 mph 15.0 mph 81 % 0.00 in 251 W/m2
10:14 57.6 °F 51.4 °F 29.61 in South 8.0 mph 15.0 mph 80 % 0.00 in 302 W/m2
10:19 57.9 °F 52.1 °F 29.61 in SSW 7.0 mph 13.0 mph 81 % 0.00 in 332 W/m2
10:24 58.3 °F 51.8 °F 29.61 in SSW 7.0 mph 16.0 mph 79 % 0.00 in 302 W/m2
10:29 58.5 °F 51.6 °F 29.61 in SSW 8.0 mph 16.0 mph 78 % 0.00 in 127 W/m2
10:34 58.6 °F 51.1 °F 29.61 in SSW 10.0 mph 20.0 mph 76 % 0.00 in 385 W/m2
10:39 58.8 °F 51.3 °F 29.60 in SSW 11.0 mph 20.0 mph 76 % 0.00 in 322 W/m2
10:44 59.2 °F 51.3 °F 29.61 in SSW 12.0 mph 20.0 mph 75 % 0.00 in 418 W/m2
10:49 59.5 °F 51.2 °F 29.60 in SSW 12.0 mph 22.0 mph 74 % 0.00 in 346 W/m2
10:54 60.1 °F 51.8 °F 29.60 in SSW 11.0 mph 22.0 mph 74 % 0.00 in 360 W/m2
10:59 60.3 °F 51.6 °F 29.60 in SSW 9.0 mph 19.0 mph 73 % 0.00 in 374 W/m2
11:04 60.4 °F 51.4 °F 29.60 in SSW 11.0 mph 24.0 mph 72 % 0.00 in 446 W/m2
11:09 60.6 °F 51.9 °F 29.60 in SSW 13.0 mph 24.0 mph 73 % 0.00 in 309 W/m2
11:14 60.3 °F 51.6 °F 29.61 in SW 14.0 mph 26.0 mph 73 % 0.00 in 141 W/m2
11:19 59.4 °F 52.5 °F 29.61 in SW 14.0 mph 26.0 mph 78 % 0.01 in 148 W/m2
11:24 58.6 °F 53.2 °F 29.61 in SW 10.0 mph 21.0 mph 82 % 0.02 in 148 W/m2
11:29 57.9 °F 52.8 °F 29.61 in SW 9.0 mph 15.0 mph 83 % 0.02 in 81 W/m2
11:34 57.4 °F 52.9 °F 29.61 in SW 9.0 mph 15.0 mph 85 % 0.02 in 105 W/m2
11:39 57.0 °F 52.9 °F 29.62 in SW 8.0 mph 13.0 mph 86 % 0.02 in 111 W/m2
11:44 56.7 °F 52.8 °F 29.62 in SW 8.0 mph 16.0 mph 87 % 0.03 in 107 W/m2
11:49 56.3 °F 52.5 °F 29.62 in SW 11.0 mph 21.0 mph 87 % 0.04 in 142 W/m2
11:54 55.9 °F 52.4 °F 29.61 in SW 11.0 mph 21.0 mph 88 % 0.04 in 158 W/m2
11:59 55.9 °F 52.7 °F 29.61 in SW 8.0 mph 14.0 mph 89 % 0.04 in 288 W/m2
12:04 56.1 °F 53.2 °F 29.61 in WSW 6.0 mph 13.0 mph 90 % 0.05 in 278 W/m2
12:09 56.1 °F 53.2 °F 29.61 in SW 5.0 mph 10.0 mph 90 % 0.05 in 387 W/m2
12:14 56.8 °F 54.5 °F 29.61 in SW 6.0 mph 10.0 mph 92 % 0.05 in 383 W/m2
12:19 57.4 °F 55.1 °F 29.61 in SW 6.0 mph 10.0 mph 92 % 0.04 in 563 W/m2
12:24 57.4 °F 54.5 °F 29.61 in SW 7.0 mph 16.0 mph 90 % 0.03 in 308 W/m2
12:29 57.7 °F 54.8 °F 29.60 in SW 8.0 mph 16.0 mph 90 % 0.02 in 450 W/m2
12:34 58.1 °F 55.2 °F 29.60 in SW 8.0 mph 16.0 mph 90 % 0.02 in 454 W/m2
12:39 58.8 °F 55.6 °F 29.60 in SW 9.0 mph 16.0 mph 89 % 0.02 in 445 W/m2
12:44 59.2 °F 55.3 °F 29.60 in SW 9.0 mph 14.0 mph 87 % 0.02 in 436 W/m2
12:49 59.7 °F 55.2 °F 29.60 in SW 9.0 mph 16.0 mph 85 % 0.01 in 1362 W/m2
12:54 60.3 °F 55.4 °F 29.59 in SW 8.0 mph 16.0 mph 84 % 0.01 in 394 W/m2
12:59 60.6 °F 55.1 °F 29.59 in SSW 8.0 mph 18.0 mph 82 % 0.00 in 538 W/m2
13:03 60.6 °F 54.8 °F 29.59 in SSW 9.0 mph 18.0 mph 81 % 0.00 in 758 W/m2
13:08 61.0 °F 54.4 °F 29.59 in SW 11.0 mph 19.0 mph 79 % 0.00 in 1034 W/m2
13:13 61.2 °F 53.9 °F 29.59 in SW 12.0 mph 19.0 mph 77 % 0.00 in 339 W/m2
13:18 60.8 °F 53.9 °F 29.59 in SW 12.0 mph 19.0 mph 78 % 0.00 in 390 W/m2
13:23 60.6 °F 54.4 °F 29.59 in SW 10.0 mph 19.0 mph 80 % 0.00 in 701 W/m2
13:28 60.6 °F 54.4 °F 29.59 in SW 9.0 mph 14.0 mph 80 % 0.00 in 417 W/m2
13:33 60.4 °F 54.6 °F 29.59 in SW 10.0 mph 20.0 mph 81 % 0.00 in 267 W/m2
13:38 60.1 °F 54.2 °F 29.59 in SW 11.0 mph 20.0 mph 81 % 0.00 in 415 W/m2
13:43 60.3 °F 55.4 °F 29.59 in SW 10.0 mph 16.0 mph 84 % 0.00 in 962 W/m2
13:48 60.4 °F 54.9 °F 29.59 in SW 9.0 mph 15.0 mph 82 % 0.00 in 979 W/m2
13:53 61.2 °F 54.6 °F 29.59 in SW 10.0 mph 20.0 mph 79 % 0.00 in 492 W/m2
13:59 61.5 °F 54.2 °F 29.59 in WSW 11.0 mph 20.0 mph 77 % 0.00 in 608 W/m2
14:04 62.2 °F 54.2 °F 29.58 in WSW 12.0 mph 22.0 mph 75 % 0.00 in 450 W/m2
14:09 62.4 °F 53.3 °F 29.59 in WSW 13.0 mph 25.0 mph 72 % 0.00 in 684 W/m2
14:14 63.0 °F 53.4 °F 29.59 in WSW 11.0 mph 20.0 mph 71 % 0.00 in 473 W/m2
14:19 63.1 °F 53.2 °F 29.59 in WSW 12.0 mph 23.0 mph 70 % 0.00 in 341 W/m2
14:24 63.0 °F 53.0 °F 29.59 in WSW 13.0 mph 25.0 mph 70 % 0.00 in 394 W/m2
14:29 63.1 °F 53.6 °F 29.58 in WSW 12.0 mph 25.0 mph 71 % 0.00 in 278 W/m2
14:34 63.1 °F 53.2 °F 29.58 in WSW 10.0 mph 20.0 mph 70 % 0.00 in 689 W/m2
14:39 63.5 °F 53.1 °F 29.58 in West 13.0 mph 24.0 mph 69 % 0.00 in 642 W/m2
14:44 63.9 °F 53.1 °F 29.58 in WSW 15.0 mph 27.0 mph 68 % 0.00 in 610 W/m2
14:49 64.2 °F 53.4 °F 29.58 in WSW 16.0 mph 27.0 mph 68 % 0.00 in 940 W/m2
14:54 64.9 °F 53.3 °F 29.58 in WSW 14.0 mph 24.0 mph 66 % 0.00 in 258 W/m2
14:59 64.8 °F 52.7 °F 29.58 in West 14.0 mph 24.0 mph 65 % 0.00 in 450 W/m2
15:04 64.8 °F 53.1 °F 29.58 in West 14.0 mph 24.0 mph 66 % 0.00 in 341 W/m2
15:09 64.8 °F 53.1 °F 29.58 in West 12.0 mph 19.0 mph 66 % 0.00 in 330 W/m2
15:14 65.1 °F 53.5 °F 29.58 in West 11.0 mph 19.0 mph 66 % 0.00 in 330 W/m2
15:19 65.7 °F 53.6 °F 29.58 in WSW 11.0 mph 24.0 mph 65 % 0.00 in 483 W/m2
15:24 65.8 °F 53.7 °F 29.58 in WSW 11.0 mph 24.0 mph 65 % 0.00 in 283 W/m2
15:29 65.5 °F 53.0 °F 29.58 in WSW 10.0 mph 20.0 mph 64 % 0.00 in 206 W/m2
15:34 64.9 °F 52.5 °F 29.58 in West 12.0 mph 21.0 mph 64 % 0.00 in 181 W/m2
15:39 64.6 °F 53.0 °F 29.58 in West 11.0 mph 21.0 mph 66 % 0.00 in 130 W/m2
15:44 64.2 °F 54.2 °F 29.58 in WSW 9.0 mph 15.0 mph 70 % 0.00 in 113 W/m2
15:49 63.5 °F 54.3 °F 29.58 in West 9.0 mph 19.0 mph 72 % 0.00 in 142 W/m2
15:54 62.8 °F 54.4 °F 29.58 in West 10.0 mph 19.0 mph 74 % 0.00 in 123 W/m2
15:59 61.9 °F 53.9 °F 29.58 in West 9.0 mph 16.0 mph 75 % 0.00 in 109 W/m2
16:04 61.3 °F 54.4 °F 29.58 in West 8.0 mph 16.0 mph 78 % 0.01 in 69 W/m2
16:09 60.4 °F 53.5 °F 29.58 in WSW 9.0 mph 19.0 mph 78 % 0.01 in 58 W/m2
16:15 59.4 °F 52.8 °F 29.58 in West 11.0 mph 23.0 mph 79 % 0.02 in 128 W/m2
16:20 58.5 °F 53.0 °F 29.58 in West 12.0 mph 23.0 mph 82 % 0.02 in 178 W/m2
16:25 58.1 °F 53.6 °F 29.58 in West 10.0 mph 20.0 mph 85 % 0.02 in 76 W/m2
16:30 57.9 °F 53.8 °F 29.58 in WSW 6.0 mph 13.0 mph 86 % 0.03 in 113 W/m2
16:35 57.7 °F 53.9 °F 29.58 in West 5.0 mph 8.0 mph 87 % 0.03 in 195 W/m2
16:40 57.9 °F 54.4 °F 29.58 in West 4.0 mph 8.0 mph 88 % 0.03 in 325 W/m2
16:45 58.5 °F 55.2 °F 29.58 in West 4.0 mph 8.0 mph 89 % 0.03 in 522 W/m2
16:50 59.2 °F 55.9 °F 29.58 in West 4.0 mph 9.0 mph 89 % 0.03 in 260 W/m2
16:55 59.5 °F 56.0 °F 29.58 in West 5.0 mph 11.0 mph 88 % 0.03 in 295 W/m2
17:00 60.3 °F 56.7 °F 29.58 in WNW 5.0 mph 11.0 mph 88 % 0.03 in 722 W/m2
17:05 61.0 °F 57.1 °F 29.58 in WNW 4.0 mph 10.0 mph 87 % 0.02 in 536 W/m2
17:10 61.3 °F 56.5 °F 29.58 in West 4.0 mph 9.0 mph 84 % 0.02 in 181 W/m2
17:15 61.5 °F 56.0 °F 29.58 in WNW 4.0 mph 10.0 mph 82 % 0.01 in 139 W/m2
17:20 61.9 °F 56.3 °F 29.58 in WNW 3.0 mph 10.0 mph 82 % 0.01 in 232 W/m2
17:25 61.9 °F 56.3 °F 29.58 in WNW 3.0 mph 8.0 mph 82 % 0.01 in 134 W/m2
17:30 61.9 °F 56.7 °F 29.58 in WNW 4.0 mph 8.0 mph 83 % 0.00 in 86 W/m2
17:35 61.9 °F 56.3 °F 29.58 in WNW 5.0 mph 10.0 mph 82 % 0.00 in 77 W/m2
17:40 61.7 °F 55.8 °F 29.58 in WNW 6.0 mph 11.0 mph 81 % 0.00 in 69 W/m2
17:45 61.5 °F 55.6 °F 29.58 in WNW 7.0 mph 13.0 mph 81 % 0.00 in 102 W/m2
17:50 61.3 °F 55.5 °F 29.57 in WNW 6.0 mph 13.0 mph 81 % 0.00 in 229 W/m2
17:55 61.3 °F 55.8 °F 29.57 in WNW 5.0 mph 9.0 mph 82 % 0.00 in 193 W/m2
18:00 61.3 °F 55.8 °F 29.57 in WNW 4.0 mph 8.0 mph 82 % 0.00 in 107 W/m2
18:05 61.2 °F 55.3 °F 29.57 in WNW 5.0 mph 10.0 mph 81 % 0.00 in 77 W/m2
18:10 61.2 °F 55.6 °F 29.57 in West 5.0 mph 10.0 mph 82 % 0.00 in 60 W/m2
18:15 61.2 °F 55.6 °F 29.57 in West 4.0 mph 9.0 mph 82 % 0.00 in 46 W/m2
18:20 61.0 °F 55.8 °F 29.58 in WSW 4.0 mph 9.0 mph 83 % 0.00 in 69 W/m2
18:25 61.0 °F 56.4 °F 29.57 in WSW 4.0 mph 10.0 mph 85 % 0.01 in 56 W/m2
18:30 60.6 °F 55.8 °F 29.57 in WSW 6.0 mph 11.0 mph 84 % 0.01 in 72 W/m2
18:35 60.4 °F 55.9 °F 29.57 in WSW 6.0 mph 11.0 mph 85 % 0.01 in 98 W/m2
18:40 60.4 °F 56.2 °F 29.57 in WSW 4.0 mph 9.0 mph 86 % 0.01 in 390 W/m2
18:45 60.6 °F 56.4 °F 29.57 in SW 4.0 mph 9.0 mph 86 % 0.01 in 392 W/m2
18:50 61.3 °F 56.8 °F 29.57 in WSW 5.0 mph 9.0 mph 85 % 0.01 in 352 W/m2
18:55 61.5 °F 57.0 °F 29.57 in SW 5.0 mph 8.0 mph 85 % 0.01 in 128 W/m2
19:00 61.7 °F 56.8 °F 29.57 in SW 5.0 mph 8.0 mph 84 % 0.01 in 114 W/m2
19:05 61.5 °F 56.3 °F 29.57 in WSW 5.0 mph 8.0 mph 83 % 0.01 in 98 W/m2
19:10 61.5 °F 56.3 °F 29.57 in WSW 4.0 mph 8.0 mph 83 % 0.01 in 105 W/m2
19:15 61.5 °F 56.6 °F 29.57 in SW 3.0 mph 6.0 mph 84 % 0.01 in 98 W/m2
19:21 61.3 °F 56.1 °F 29.58 in WSW 3.0 mph 8.0 mph 83 % 0.01 in 58 W/m2
19:26 61.3 °F 56.1 °F 29.58 in WSW 5.0 mph 12.0 mph 83 % 0.00 in 76 W/m2
19:31 61.0 °F 55.8 °F 29.58 in WSW 8.0 mph 16.0 mph 83 % 0.00 in 123 W/m2
19:36 60.4 °F 55.3 °F 29.58 in WSW 9.0 mph 16.0 mph 83 % 0.01 in 134 W/m2
19:41 60.1 °F 55.2 °F 29.58 in WSW 8.0 mph 15.0 mph 84 % 0.01 in 185 W/m2
19:46 60.1 °F 55.6 °F 29.58 in WSW 6.0 mph 11.0 mph 85 % 0.01 in 174 W/m2
19:51 60.1 °F 55.6 °F 29.58 in West 6.0 mph 11.0 mph 85 % 0.01 in 162 W/m2
19:56 60.1 °F 55.6 °F 29.58 in West 5.0 mph 10.0 mph 85 % 0.01 in 142 W/m2
20:01 60.1 °F 55.6 °F 29.58 in WSW 4.0 mph 7.0 mph 85 % 0.01 in 86 W/m2
20:06 60.1 °F 55.6 °F 29.58 in WSW 5.0 mph 9.0 mph 85 % 0.01 in 63 W/m2
20:11 59.9 °F 55.4 °F 29.58 in WSW 5.0 mph 9.0 mph 85 % 0.01 in 44 W/m2
20:16 59.7 °F 54.9 °F 29.58 in WSW 4.0 mph 9.0 mph 84 % 0.01 in 28 W/m2
20:21 59.5 °F 54.7 °F 29.58 in WSW 5.0 mph 9.0 mph 84 % 0.01 in 23 W/m2
20:26 59.4 °F 54.8 °F 29.58 in SW 5.0 mph 8.0 mph 85 % 0.01 in 21 W/m2
20:31 59.2 °F 55.0 °F 29.58 in SW 5.0 mph 8.0 mph 86 % 0.01 in 21 W/m2
20:36 58.8 °F 54.6 °F 29.58 in SW 5.0 mph 9.0 mph 86 % 0.00 in 21 W/m2
20:41 58.6 °F 54.5 °F 29.58 in WSW 5.0 mph 10.0 mph 86 % 0.00 in 21 W/m2
20:46 58.5 °F 54.6 °F 29.58 in WSW 5.0 mph 10.0 mph 87 % 0.00 in 18 W/m2
20:51 58.1 °F 53.9 °F 29.58 in WSW 6.0 mph 10.0 mph 86 % 0.00 in 14 W/m2
20:56 57.9 °F 53.8 °F 29.58 in WSW 6.0 mph 10.0 mph 86 % 0.00 in 11 W/m2
21:01 57.7 °F 53.6 °F 29.58 in WSW 6.0 mph 10.0 mph 86 % 0.00 in 7 W/m2
21:06 57.6 °F 53.4 °F 29.58 in WSW 5.0 mph 10.0 mph 86 % 0.00 in 5 W/m2
21:11 57.6 °F 53.4 °F 29.58 in WSW 5.0 mph 10.0 mph 86 % 0.00 in 0 W/m2
21:16 57.6 °F 53.4 °F 29.58 in WSW 6.0 mph 10.0 mph 86 % 0.00 in 0 W/m2
21:21 57.4 °F 53.2 °F 29.59 in WSW 6.0 mph 11.0 mph 86 % 0.00 in 0 W/m2
21:26 57.4 °F 53.5 °F 29.59 in WSW 7.0 mph 11.0 mph 87 % 0.00 in 0 W/m2
21:28 57.4 °F 53.5 °F 29.59 in WSW 7.0 mph 10.0 mph 87 % 0.00 in 0 W/m2
21:33 57.4 °F 53.5 °F 29.59 in WSW 6.0 mph 12.0 mph 87 % 0.00 in 0 W/m2
21:38 57.4 °F 53.5 °F 29.59 in SW 6.0 mph 12.0 mph 87 % 0.00 in 0 W/m2
21:43 57.4 °F 53.5 °F 29.59 in SW 6.0 mph 11.0 mph 87 % 0.00 in 0 W/m2
21:48 57.4 °F 53.5 °F 29.59 in SW 6.0 mph 11.0 mph 87 % 0.00 in 0 W/m2
21:53 57.4 °F 53.5 °F 29.59 in WSW 6.0 mph 12.0 mph 87 % 0.00 in 0 W/m2
21:58 57.4 °F 53.2 °F 29.59 in SW 6.0 mph 12.0 mph 86 % 0.00 in 0 W/m2
22:03 57.4 °F 53.2 °F 29.59 in SW 6.0 mph 10.0 mph 86 % 0.00 in 0 W/m2
22:08 57.4 °F 53.2 °F 29.59 in SW 6.0 mph 10.0 mph 86 % 0.00 in 0 W/m2
22:13 57.4 °F 52.9 °F 29.59 in SW 5.0 mph 8.0 mph 85 % 0.00 in 0 W/m2
22:18 57.2 °F 52.7 °F 29.59 in SW 6.0 mph 9.0 mph 85 % 0.00 in 0 W/m2
22:23 57.0 °F 52.6 °F 29.59 in SW 6.0 mph 9.0 mph 85 % 0.00 in 0 W/m2
22:28 57.0 °F 52.6 °F 29.59 in SW 6.0 mph 9.0 mph 85 % 0.00 in 0 W/m2
22:33 57.0 °F 52.6 °F 29.59 in SW 6.0 mph 10.0 mph 85 % 0.00 in 0 W/m2
22:34 57.0 °F 52.6 °F 29.59 in SW 6.0 mph 10.0 mph 85 % 0.00 in 0 W/m2
22:39 57.0 °F 52.6 °F 29.59 in SW 7.0 mph 12.0 mph 85 % 0.00 in 0 W/m2
22:44 57.0 °F 52.6 °F 29.59 in SW 7.0 mph 12.0 mph 85 % 0.00 in 0 W/m2
22:49 56.8 °F 52.4 °F 29.59 in SW 6.0 mph 10.0 mph 85 % 0.00 in 0 W/m2
22:54 56.8 °F 52.4 °F 29.59 in SW 7.0 mph 10.0 mph 85 % 0.00 in 0 W/m2
22:59 56.8 °F 52.4 °F 29.59 in SW 6.0 mph 10.0 mph 85 % 0.00 in 0 W/m2
23:04 56.7 °F 51.9 °F 29.59 in SW 7.0 mph 11.0 mph 84 % 0.00 in 0 W/m2
23:09 56.7 °F 51.9 °F 29.59 in SW 7.0 mph 12.0 mph 84 % 0.00 in 0 W/m2
23:14 56.5 °F 51.7 °F 29.59 in SW 6.0 mph 12.0 mph 84 % 0.00 in 0 W/m2
23:19 56.7 °F 51.9 °F 29.59 in SW 7.0 mph 13.0 mph 84 % 0.00 in 0 W/m2
23:24 56.7 °F 51.6 °F 29.59 in SW 7.0 mph 13.0 mph 83 % 0.00 in 0 W/m2
23:29 56.7 °F 51.6 °F 29.59 in SW 6.0 mph 11.0 mph 83 % 0.00 in 0 W/m2
23:34 56.7 °F 51.6 °F 29.59 in SW 6.0 mph 13.0 mph 83 % 0.00 in 0 W/m2
23:39 56.7 °F 51.6 °F 29.59 in SW 6.0 mph 13.0 mph 83 % 0.00 in 0 W/m2
23:44 56.7 °F 51.6 °F 29.59 in SW 6.0 mph 11.0 mph 83 % 0.00 in 0 W/m2
23:49 56.7 °F 51.9 °F 29.59 in SW 7.0 mph 12.0 mph 84 % 0.00 in 0 W/m2
23:54 56.7 °F 51.9 °F 29.59 in SW 7.0 mph 12.0 mph 84 % 0.00 in 0 W/m2
23:59 56.7 °F 51.9 °F 29.59 in SW 6.0 mph 10.0 mph 84 % 0.00 in 0 W/m2
Delerius-Weather
Compliments of Weather Underground - 2.25 mb

Data updates at regular intervals.